sensor_id;sensor_type;location;lat;lon;timestamp;temperature;humidity
57026;DHT22;43961;52.940;6.834;2024-01-30T00:01:51;4.00;99.90
57026;DHT22;43961;52.940;6.834;2024-01-30T00:04:16;4.00;99.90
57026;DHT22;43961;52.940;6.834;2024-01-30T00:06:43;3.90;99.90
57026;DHT22;43961;52.940;6.834;2024-01-30T00:09:09;3.90;99.90
57026;DHT22;43961;52.940;6.834;2024-01-30T00:11:36;3.90;99.90
57026;DHT22;43961;52.940;6.834;2024-01-30T00:14:02;3.90;99.90
57026;DHT22;43961;52.940;6.834;2024-01-30T00:16:28;3.80;99.90
57026;DHT22;43961;52.940;6.834;2024-01-30T00:18:54;3.80;99.90
57026;DHT22;43961;52.940;6.834;2024-01-30T00:21:20;3.80;99.90
57026;DHT22;43961;52.940;6.834;2024-01-30T00:23:46;3.80;99.90
57026;DHT22;43961;52.940;6.834;2024-01-30T00:26:12;3.80;99.90
57026;DHT22;43961;52.940;6.834;2024-01-30T00:28:38;3.80;99.90
57026;DHT22;43961;52.940;6.834;2024-01-30T00:31:04;3.80;99.90
57026;DHT22;43961;52.940;6.834;2024-01-30T00:33:30;3.80;99.90
57026;DHT22;43961;52.940;6.834;2024-01-30T00:35:55;3.80;99.90
57026;DHT22;43961;52.940;6.834;2024-01-30T00:38:21;3.80;99.90
57026;DHT22;43961;52.940;6.834;2024-01-30T00:40:47;3.80;99.90
57026;DHT22;43961;52.940;6.834;2024-01-30T00:43:12;3.80;99.90
57026;DHT22;43961;52.940;6.834;2024-01-30T00:45:38;3.80;99.90
57026;DHT22;43961;52.940;6.834;2024-01-30T00:48:04;3.80;99.90
57026;DHT22;43961;52.940;6.834;2024-01-30T00:50:29;3.80;99.90
57026;DHT22;43961;52.940;6.834;2024-01-30T00:52:55;3.80;99.90
57026;DHT22;43961;52.940;6.834;2024-01-30T00:55:22;3.80;99.90
57026;DHT22;43961;52.940;6.834;2024-01-30T00:57:48;3.80;99.90
57026;DHT22;43961;52.940;6.834;2024-01-30T01:00:14;3.70;99.90
57026;DHT22;43961;52.940;6.834;2024-01-30T01:02:42;3.70;99.90
57026;DHT22;43961;52.940;6.834;2024-01-30T01:05:08;3.70;99.90
57026;DHT22;43961;52.940;6.834;2024-01-30T01:07:34;3.70;99.90
57026;DHT22;43961;52.940;6.834;2024-01-30T01:09:59;3.70;99.90
57026;DHT22;43961;52.940;6.834;2024-01-30T01:12:25;3.70;99.90
57026;DHT22;43961;52.940;6.834;2024-01-30T01:14:51;3.70;99.90
57026;DHT22;43961;52.940;6.834;2024-01-30T01:17:17;3.60;99.90
57026;DHT22;43961;52.940;6.834;2024-01-30T01:19:44;3.60;99.90
57026;DHT22;43961;52.940;6.834;2024-01-30T01:22:10;3.60;99.90
57026;DHT22;43961;52.940;6.834;2024-01-30T01:24:36;3.60;99.90
57026;DHT22;43961;52.940;6.834;2024-01-30T01:27:02;3.60;99.90
57026;DHT22;43961;52.940;6.834;2024-01-30T01:29:28;3.50;99.90
57026;DHT22;43961;52.940;6.834;2024-01-30T01:31:57;3.50;99.90
57026;DHT22;43961;52.940;6.834;2024-01-30T01:34:24;3.50;99.90
57026;DHT22;43961;52.940;6.834;2024-01-30T01:36:50;3.50;99.90
57026;DHT22;43961;52.940;6.834;2024-01-30T01:39:17;3.50;99.90
57026;DHT22;43961;52.940;6.834;2024-01-30T01:41:42;3.40;99.90
57026;DHT22;43961;52.940;6.834;2024-01-30T01:44:08;3.40;99.90
57026;DHT22;43961;52.940;6.834;2024-01-30T01:46:35;3.40;99.90
57026;DHT22;43961;52.940;6.834;2024-01-30T01:49:02;3.40;99.90
57026;DHT22;43961;52.940;6.834;2024-01-30T01:51:29;3.40;99.90
57026;DHT22;43961;52.940;6.834;2024-01-30T01:53:56;3.40;99.90
57026;DHT22;43961;52.940;6.834;2024-01-30T01:56:23;3.40;99.90
57026;DHT22;43961;52.940;6.834;2024-01-30T01:58:50;3.40;99.90
57026;DHT22;43961;52.940;6.834;2024-01-30T02:01:19;3.40;99.90
57026;DHT22;43961;52.940;6.834;2024-01-30T02:03:45;3.40;99.90
57026;DHT22;43961;52.940;6.834;2024-01-30T02:06:11;3.40;99.90
57026;DHT22;43961;52.940;6.834;2024-01-30T02:08:37;3.30;99.90
57026;DHT22;43961;52.940;6.834;2024-01-30T02:11:04;3.40;99.90
57026;DHT22;43961;52.940;6.834;2024-01-30T02:13:29;3.40;99.90
57026;DHT22;43961;52.940;6.834;2024-01-30T02:15:55;3.30;99.90
57026;DHT22;43961;52.940;6.834;2024-01-30T02:18:21;3.40;99.90
57026;DHT22;43961;52.940;6.834;2024-01-30T02:20:47;3.40;99.90
57026;DHT22;43961;52.940;6.834;2024-01-30T02:23:15;3.40;99.90
57026;DHT22;43961;52.940;6.834;2024-01-30T02:25:42;3.40;99.90
57026;DHT22;43961;52.940;6.834;2024-01-30T02:28:13;3.40;99.90
57026;DHT22;43961;52.940;6.834;2024-01-30T02:30:46;3.40;99.90
57026;DHT22;43961;52.940;6.834;2024-01-30T02:33:12;3.50;99.90
57026;DHT22;43961;52.940;6.834;2024-01-30T02:35:38;3.50;99.90
57026;DHT22;43961;52.940;6.834;2024-01-30T02:38:04;3.50;99.90
57026;DHT22;43961;52.940;6.834;2024-01-30T02:40:30;3.60;99.90
57026;DHT22;43961;52.940;6.834;2024-01-30T02:42:57;3.60;99.90
57026;DHT22;43961;52.940;6.834;2024-01-30T02:45:23;3.60;99.90
57026;DHT22;43961;52.940;6.834;2024-01-30T02:47:49;3.60;99.90
57026;DHT22;43961;52.940;6.834;2024-01-30T02:50:14;3.60;99.90
57026;DHT22;43961;52.940;6.834;2024-01-30T02:52:40;3.60;99.90
57026;DHT22;43961;52.940;6.834;2024-01-30T02:55:06;3.60;99.90
57026;DHT22;43961;52.940;6.834;2024-01-30T02:57:33;3.60;99.90
57026;DHT22;43961;52.940;6.834;2024-01-30T02:59:59;3.70;99.90
57026;DHT22;43961;52.940;6.834;2024-01-30T03:02:25;3.70;99.90
57026;DHT22;43961;52.940;6.834;2024-01-30T03:04:51;3.80;99.90
57026;DHT22;43961;52.940;6.834;2024-01-30T03:07:16;4.00;99.90
57026;DHT22;43961;52.940;6.834;2024-01-30T03:09:42;4.10;99.90
57026;DHT22;43961;52.940;6.834;2024-01-30T03:12:09;4.10;99.90
57026;DHT22;43961;52.940;6.834;2024-01-30T03:14:34;4.20;99.90
57026;DHT22;43961;52.940;6.834;2024-01-30T03:17:00;4.20;99.90
57026;DHT22;43961;52.940;6.834;2024-01-30T03:19:26;4.40;99.90
57026;DHT22;43961;52.940;6.834;2024-01-30T03:21:52;4.50;99.90
57026;DHT22;43961;52.940;6.834;2024-01-30T03:24:17;4.60;99.90
57026;DHT22;43961;52.940;6.834;2024-01-30T03:26:43;4.70;99.90
57026;DHT22;43961;52.940;6.834;2024-01-30T03:29:09;4.70;99.90
57026;DHT22;43961;52.940;6.834;2024-01-30T03:31:36;4.70;99.90
57026;DHT22;43961;52.940;6.834;2024-01-30T03:34:02;4.80;99.90
57026;DHT22;43961;52.940;6.834;2024-01-30T03:36:28;4.90;99.90
57026;DHT22;43961;52.940;6.834;2024-01-30T03:38:54;4.90;99.90
57026;DHT22;43961;52.940;6.834;2024-01-30T03:41:19;4.90;99.90
57026;DHT22;43961;52.940;6.834;2024-01-30T03:43:46;5.00;99.90
57026;DHT22;43961;52.940;6.834;2024-01-30T03:46:12;5.00;99.90
57026;DHT22;43961;52.940;6.834;2024-01-30T03:48:38;5.10;99.90
57026;DHT22;43961;52.940;6.834;2024-01-30T03:51:04;5.20;99.90
57026;DHT22;43961;52.940;6.834;2024-01-30T03:53:30;5.30;99.90
57026;DHT22;43961;52.940;6.834;2024-01-30T03:55:56;5.40;99.90
57026;DHT22;43961;52.940;6.834;2024-01-30T03:58:22;5.50;99.90
57026;DHT22;43961;52.940;6.834;2024-01-30T04:00:47;5.40;99.90
57026;DHT22;43961;52.940;6.834;2024-01-30T04:03:14;5.50;99.90
57026;DHT22;43961;52.940;6.834;2024-01-30T04:05:41;5.50;99.90
57026;DHT22;43961;52.940;6.834;2024-01-30T04:08:07;5.60;99.90
57026;DHT22;43961;52.940;6.834;2024-01-30T04:10:33;5.60;99.90
57026;DHT22;43961;52.940;6.834;2024-01-30T04:12:59;5.70;99.90
57026;DHT22;43961;52.940;6.834;2024-01-30T04:15:25;5.80;99.90
57026;DHT22;43961;52.940;6.834;2024-01-30T04:17:51;5.90;99.90
57026;DHT22;43961;52.940;6.834;2024-01-30T04:20:16;5.90;99.90
57026;DHT22;43961;52.940;6.834;2024-01-30T04:22:46;6.00;99.90
57026;DHT22;43961;52.940;6.834;2024-01-30T04:25:13;6.10;99.90
57026;DHT22;43961;52.940;6.834;2024-01-30T04:27:39;6.10;99.90
57026;DHT22;43961;52.940;6.834;2024-01-30T04:30:05;6.20;99.90
57026;DHT22;43961;52.940;6.834;2024-01-30T04:32:32;6.20;99.90
57026;DHT22;43961;52.940;6.834;2024-01-30T04:34:57;6.30;99.90
57026;DHT22;43961;52.940;6.834;2024-01-30T04:37:24;6.40;99.90
57026;DHT22;43961;52.940;6.834;2024-01-30T04:39:50;6.40;99.90
57026;DHT22;43961;52.940;6.834;2024-01-30T04:42:16;6.50;99.90
57026;DHT22;43961;52.940;6.834;2024-01-30T04:44:42;6.50;99.90
57026;DHT22;43961;52.940;6.834;2024-01-30T04:47:10;6.50;99.90
57026;DHT22;43961;52.940;6.834;2024-01-30T04:49:38;6.60;99.90
57026;DHT22;43961;52.940;6.834;2024-01-30T04:52:05;6.60;99.90
57026;DHT22;43961;52.940;6.834;2024-01-30T04:54:31;6.70;99.90
57026;DHT22;43961;52.940;6.834;2024-01-30T04:56:58;6.70;99.90
57026;DHT22;43961;52.940;6.834;2024-01-30T04:59:24;6.80;99.90
57026;DHT22;43961;52.940;6.834;2024-01-30T05:01:50;6.80;99.90
57026;DHT22;43961;52.940;6.834;2024-01-30T05:04:15;6.90;99.90
57026;DHT22;43961;52.940;6.834;2024-01-30T05:06:41;6.90;99.90
57026;DHT22;43961;52.940;6.834;2024-01-30T05:09:07;6.90;99.90
57026;DHT22;43961;52.940;6.834;2024-01-30T05:11:42;7.00;99.90
57026;DHT22;43961;52.940;6.834;2024-01-30T05:14:07;7.00;99.90
57026;DHT22;43961;52.940;6.834;2024-01-30T05:16:34;7.00;99.90
57026;DHT22;43961;52.940;6.834;2024-01-30T05:19:00;7.00;99.90
57026;DHT22;43961;52.940;6.834;2024-01-30T05:21:26;7.10;99.90
57026;DHT22;43961;52.940;6.834;2024-01-30T05:23:51;7.10;99.90
57026;DHT22;43961;52.940;6.834;2024-01-30T05:26:17;7.10;99.90
57026;DHT22;43961;52.940;6.834;2024-01-30T05:28:43;7.10;99.90
57026;DHT22;43961;52.940;6.834;2024-01-30T05:31:12;7.10;99.90
57026;DHT22;43961;52.940;6.834;2024-01-30T05:33:37;7.10;99.90
57026;DHT22;43961;52.940;6.834;2024-01-30T05:36:03;7.10;99.90
57026;DHT22;43961;52.940;6.834;2024-01-30T05:38:29;7.10;99.90
57026;DHT22;43961;52.940;6.834;2024-01-30T05:40:55;7.10;99.90
57026;DHT22;43961;52.940;6.834;2024-01-30T05:43:23;7.10;99.90
57026;DHT22;43961;52.940;6.834;2024-01-30T05:45:49;7.10;99.90
57026;DHT22;43961;52.940;6.834;2024-01-30T05:48:14;7.10;99.90
57026;DHT22;43961;52.940;6.834;2024-01-30T05:50:40;7.10;99.90
57026;DHT22;43961;52.940;6.834;2024-01-30T05:53:06;7.10;99.90
57026;DHT22;43961;52.940;6.834;2024-01-30T05:55:31;7.20;99.90
57026;DHT22;43961;52.940;6.834;2024-01-30T05:57:57;7.20;99.90
57026;DHT22;43961;52.940;6.834;2024-01-30T06:00:23;7.20;99.90
57026;DHT22;43961;52.940;6.834;2024-01-30T06:02:49;7.20;99.90
57026;DHT22;43961;52.940;6.834;2024-01-30T06:05:15;7.20;99.90
57026;DHT22;43961;52.940;6.834;2024-01-30T06:07:40;7.20;99.90
57026;DHT22;43961;52.940;6.834;2024-01-30T06:10:06;7.30;99.90
57026;DHT22;43961;52.940;6.834;2024-01-30T06:12:33;7.30;99.90
57026;DHT22;43961;52.940;6.834;2024-01-30T06:14:58;7.30;99.90
57026;DHT22;43961;52.940;6.834;2024-01-30T06:17:24;7.20;99.90
57026;DHT22;43961;52.940;6.834;2024-01-30T06:19:50;7.30;99.90
57026;DHT22;43961;52.940;6.834;2024-01-30T06:22:16;7.30;99.90
57026;DHT22;43961;52.940;6.834;2024-01-30T06:24:42;7.30;99.90
57026;DHT22;43961;52.940;6.834;2024-01-30T06:27:10;7.30;99.90
57026;DHT22;43961;52.940;6.834;2024-01-30T06:29:36;7.30;99.90
57026;DHT22;43961;52.940;6.834;2024-01-30T06:32:01;7.30;99.90
57026;DHT22;43961;52.940;6.834;2024-01-30T06:34:27;7.30;99.90
57026;DHT22;43961;52.940;6.834;2024-01-30T06:36:53;7.30;99.90
57026;DHT22;43961;52.940;6.834;2024-01-30T06:39:18;7.30;99.90
57026;DHT22;43961;52.940;6.834;2024-01-30T06:41:44;7.30;99.90
57026;DHT22;43961;52.940;6.834;2024-01-30T06:44:12;7.30;99.90
57026;DHT22;43961;52.940;6.834;2024-01-30T06:46:38;7.30;99.90
57026;DHT22;43961;52.940;6.834;2024-01-30T06:49:04;7.30;99.90
57026;DHT22;43961;52.940;6.834;2024-01-30T06:51:30;7.40;99.90
57026;DHT22;43961;52.940;6.834;2024-01-30T06:53:56;7.40;99.90
57026;DHT22;43961;52.940;6.834;2024-01-30T06:56:21;7.40;99.90
57026;DHT22;43961;52.940;6.834;2024-01-30T06:58:51;7.50;99.90
57026;DHT22;43961;52.940;6.834;2024-01-30T07:01:16;7.40;99.90
57026;DHT22;43961;52.940;6.834;2024-01-30T07:03:43;7.40;99.90
57026;DHT22;43961;52.940;6.834;2024-01-30T07:06:12;7.40;99.90
57026;DHT22;43961;52.940;6.834;2024-01-30T07:08:37;7.50;99.90
57026;DHT22;43961;52.940;6.834;2024-01-30T07:11:06;7.50;99.90
57026;DHT22;43961;52.940;6.834;2024-01-30T07:13:32;7.50;99.90
57026;DHT22;43961;52.940;6.834;2024-01-30T07:15:58;7.50;99.90
57026;DHT22;43961;52.940;6.834;2024-01-30T07:18:23;7.50;99.90
57026;DHT22;43961;52.940;6.834;2024-01-30T07:20:49;7.50;99.90
57026;DHT22;43961;52.940;6.834;2024-01-30T07:23:16;7.50;99.90
57026;DHT22;43961;52.940;6.834;2024-01-30T07:25:46;7.60;99.90
57026;DHT22;43961;52.940;6.834;2024-01-30T07:28:14;7.60;99.90
57026;DHT22;43961;52.940;6.834;2024-01-30T07:30:42;7.60;99.90
57026;DHT22;43961;52.940;6.834;2024-01-30T07:33:09;7.60;99.90
57026;DHT22;43961;52.940;6.834;2024-01-30T07:35:35;7.60;99.90
57026;DHT22;43961;52.940;6.834;2024-01-30T07:38:01;7.60;99.90
57026;DHT22;43961;52.940;6.834;2024-01-30T07:40:27;7.60;99.90
57026;DHT22;43961;52.940;6.834;2024-01-30T07:42:55;7.70;99.90
57026;DHT22;43961;52.940;6.834;2024-01-30T07:45:21;7.70;99.90
57026;DHT22;43961;52.940;6.834;2024-01-30T07:47:51;7.70;99.90
57026;DHT22;43961;52.940;6.834;2024-01-30T07:50:17;7.70;99.90
57026;DHT22;43961;52.940;6.834;2024-01-30T07:52:44;7.70;99.90
57026;DHT22;43961;52.940;6.834;2024-01-30T07:55:09;7.70;99.90
57026;DHT22;43961;52.940;6.834;2024-01-30T07:57:35;7.80;99.90
57026;DHT22;43961;52.940;6.834;2024-01-30T08:00:03;7.80;99.90
57026;DHT22;43961;52.940;6.834;2024-01-30T08:02:31;7.80;99.90
57026;DHT22;43961;52.940;6.834;2024-01-30T08:04:56;7.70;99.90
57026;DHT22;43961;52.940;6.834;2024-01-30T08:07:22;7.70;99.90
57026;DHT22;43961;52.940;6.834;2024-01-30T08:09:48;7.80;99.90
57026;DHT22;43961;52.940;6.834;2024-01-30T08:12:14;7.80;99.90
57026;DHT22;43961;52.940;6.834;2024-01-30T08:14:40;7.80;99.90
57026;DHT22;43961;52.940;6.834;2024-01-30T08:17:06;7.80;99.90
57026;DHT22;43961;52.940;6.834;2024-01-30T08:19:33;7.80;99.90
57026;DHT22;43961;52.940;6.834;2024-01-30T08:22:03;7.80;99.90
57026;DHT22;43961;52.940;6.834;2024-01-30T08:24:29;7.90;99.90
57026;DHT22;43961;52.940;6.834;2024-01-30T08:26:55;7.90;99.90
57026;DHT22;43961;52.940;6.834;2024-01-30T08:29:20;7.90;99.90
57026;DHT22;43961;52.940;6.834;2024-01-30T08:31:46;7.90;99.90
57026;DHT22;43961;52.940;6.834;2024-01-30T08:34:11;7.90;99.90
57026;DHT22;43961;52.940;6.834;2024-01-30T08:36:37;8.00;99.90
57026;DHT22;43961;52.940;6.834;2024-01-30T08:39:04;8.00;99.90
57026;DHT22;43961;52.940;6.834;2024-01-30T08:41:30;8.00;99.90
57026;DHT22;43961;52.940;6.834;2024-01-30T08:43:56;7.90;99.90
57026;DHT22;43961;52.940;6.834;2024-01-30T08:46:21;8.10;99.90
57026;DHT22;43961;52.940;6.834;2024-01-30T08:48:47;8.10;99.90
57026;DHT22;43961;52.940;6.834;2024-01-30T08:51:13;8.10;99.90
57026;DHT22;43961;52.940;6.834;2024-01-30T08:53:40;8.10;99.90
57026;DHT22;43961;52.940;6.834;2024-01-30T08:56:06;8.20;99.90
57026;DHT22;43961;52.940;6.834;2024-01-30T08:58:32;8.20;99.90
57026;DHT22;43961;52.940;6.834;2024-01-30T09:00:58;8.20;99.90
57026;DHT22;43961;52.940;6.834;2024-01-30T09:03:24;8.20;99.90
57026;DHT22;43961;52.940;6.834;2024-01-30T09:05:50;8.20;99.90
57026;DHT22;43961;52.940;6.834;2024-01-30T09:08:15;8.30;99.90
57026;DHT22;43961;52.940;6.834;2024-01-30T09:10:41;8.30;99.90
57026;DHT22;43961;52.940;6.834;2024-01-30T09:13:06;8.30;99.90
57026;DHT22;43961;52.940;6.834;2024-01-30T09:15:32;8.40;99.90
57026;DHT22;43961;52.940;6.834;2024-01-30T09:17:58;8.40;99.90
57026;DHT22;43961;52.940;6.834;2024-01-30T09:20:23;8.40;99.90
57026;DHT22;43961;52.940;6.834;2024-01-30T09:22:49;8.50;99.90
57026;DHT22;43961;52.940;6.834;2024-01-30T09:25:15;8.50;99.90
57026;DHT22;43961;52.940;6.834;2024-01-30T09:27:40;8.50;99.90
57026;DHT22;43961;52.940;6.834;2024-01-30T09:30:07;8.50;99.90
57026;DHT22;43961;52.940;6.834;2024-01-30T09:32:32;8.50;99.90
57026;DHT22;43961;52.940;6.834;2024-01-30T09:34:58;8.50;99.90
57026;DHT22;43961;52.940;6.834;2024-01-30T09:37:24;8.50;99.90
57026;DHT22;43961;52.940;6.834;2024-01-30T09:39:49;8.60;99.90
57026;DHT22;43961;52.940;6.834;2024-01-30T09:42:25;8.60;99.90
57026;DHT22;43961;52.940;6.834;2024-01-30T09:44:53;8.70;99.90
57026;DHT22;43961;52.940;6.834;2024-01-30T09:47:19;8.70;99.90
57026;DHT22;43961;52.940;6.834;2024-01-30T09:49:45;8.80;99.90
57026;DHT22;43961;52.940;6.834;2024-01-30T09:52:11;8.80;99.90
57026;DHT22;43961;52.940;6.834;2024-01-30T09:54:38;8.80;99.90
57026;DHT22;43961;52.940;6.834;2024-01-30T09:57:04;8.80;99.90
57026;DHT22;43961;52.940;6.834;2024-01-30T09:59:30;8.80;99.90
57026;DHT22;43961;52.940;6.834;2024-01-30T10:01:57;8.80;99.90
57026;DHT22;43961;52.940;6.834;2024-01-30T10:04:23;8.80;99.90
57026;DHT22;43961;52.940;6.834;2024-01-30T10:06:49;8.80;99.90
57026;DHT22;43961;52.940;6.834;2024-01-30T10:09:14;8.90;99.90
57026;DHT22;43961;52.940;6.834;2024-01-30T10:11:40;9.00;99.90
57026;DHT22;43961;52.940;6.834;2024-01-30T10:14:06;9.00;99.90
57026;DHT22;43961;52.940;6.834;2024-01-30T10:16:31;9.10;99.90
57026;DHT22;43961;52.940;6.834;2024-01-30T10:18:57;9.20;99.90
57026;DHT22;43961;52.940;6.834;2024-01-30T10:21:23;9.20;99.90
57026;DHT22;43961;52.940;6.834;2024-01-30T10:23:49;9.30;99.90
57026;DHT22;43961;52.940;6.834;2024-01-30T10:26:16;9.30;99.90
57026;DHT22;43961;52.940;6.834;2024-01-30T10:28:48;9.40;99.90
57026;DHT22;43961;52.940;6.834;2024-01-30T10:31:18;9.50;99.90
57026;DHT22;43961;52.940;6.834;2024-01-30T10:33:44;9.50;99.90
57026;DHT22;43961;52.940;6.834;2024-01-30T10:36:13;9.60;99.90
57026;DHT22;43961;52.940;6.834;2024-01-30T10:38:42;9.70;99.90
57026;DHT22;43961;52.940;6.834;2024-01-30T10:41:08;9.70;99.90
57026;DHT22;43961;52.940;6.834;2024-01-30T10:43:41;9.80;99.90
57026;DHT22;43961;52.940;6.834;2024-01-30T10:46:24;9.90;99.90
57026;DHT22;43961;52.940;6.834;2024-01-30T10:48:58;10.00;99.90
57026;DHT22;43961;52.940;6.834;2024-01-30T10:51:28;10.00;99.90
57026;DHT22;43961;52.940;6.834;2024-01-30T10:53:55;10.10;99.90
57026;DHT22;43961;52.940;6.834;2024-01-30T10:56:22;10.10;99.90
57026;DHT22;43961;52.940;6.834;2024-01-30T10:58:50;10.10;99.90
57026;DHT22;43961;52.940;6.834;2024-01-30T11:01:17;10.20;99.90
57026;DHT22;43961;52.940;6.834;2024-01-30T11:03:43;10.20;99.90
57026;DHT22;43961;52.940;6.834;2024-01-30T11:06:11;10.20;99.90
57026;DHT22;43961;52.940;6.834;2024-01-30T11:08:39;10.20;99.90
57026;DHT22;43961;52.940;6.834;2024-01-30T11:11:09;10.20;99.90
57026;DHT22;43961;52.940;6.834;2024-01-30T11:13:35;10.20;99.90
57026;DHT22;43961;52.940;6.834;2024-01-30T11:16:04;10.30;99.90
57026;DHT22;43961;52.940;6.834;2024-01-30T11:18:32;10.20;99.90
57026;DHT22;43961;52.940;6.834;2024-01-30T11:20:59;10.20;99.90
57026;DHT22;43961;52.940;6.834;2024-01-30T11:23:27;10.30;99.90
57026;DHT22;43961;52.940;6.834;2024-01-30T11:25:54;10.30;99.90
57026;DHT22;43961;52.940;6.834;2024-01-30T11:28:21;10.30;99.90
57026;DHT22;43961;52.940;6.834;2024-01-30T11:30:48;10.30;99.90
57026;DHT22;43961;52.940;6.834;2024-01-30T11:33:26;10.30;99.90
57026;DHT22;43961;52.940;6.834;2024-01-30T11:35:52;10.30;99.90
57026;DHT22;43961;52.940;6.834;2024-01-30T11:38:18;10.30;99.90
57026;DHT22;43961;52.940;6.834;2024-01-30T11:40:44;10.30;99.90
57026;DHT22;43961;52.940;6.834;2024-01-30T11:43:10;10.30;99.90
57026;DHT22;43961;52.940;6.834;2024-01-30T11:45:37;10.40;99.90
57026;DHT22;43961;52.940;6.834;2024-01-30T11:48:05;10.40;99.90
57026;DHT22;43961;52.940;6.834;2024-01-30T11:50:31;10.30;99.90
57026;DHT22;43961;52.940;6.834;2024-01-30T11:52:58;10.30;99.90
57026;DHT22;43961;52.940;6.834;2024-01-30T11:55:24;10.40;99.90
57026;DHT22;43961;52.940;6.834;2024-01-30T11:57:50;10.30;99.90
57026;DHT22;43961;52.940;6.834;2024-01-30T12:00:18;10.30;99.90
57026;DHT22;43961;52.940;6.834;2024-01-30T12:02:44;10.30;99.90
57026;DHT22;43961;52.940;6.834;2024-01-30T12:05:14;10.30;99.90
57026;DHT22;43961;52.940;6.834;2024-01-30T12:07:39;10.40;99.90
57026;DHT22;43961;52.940;6.834;2024-01-30T12:10:05;10.40;99.90
57026;DHT22;43961;52.940;6.834;2024-01-30T12:12:31;10.40;99.90
57026;DHT22;43961;52.940;6.834;2024-01-30T12:14:57;10.40;99.90
57026;DHT22;43961;52.940;6.834;2024-01-30T12:17:30;10.50;99.90
57026;DHT22;43961;52.940;6.834;2024-01-30T12:20:06;10.50;99.90
57026;DHT22;43961;52.940;6.834;2024-01-30T12:22:42;10.60;99.90
57026;DHT22;43961;52.940;6.834;2024-01-30T12:25:15;10.70;99.90
57026;DHT22;43961;52.940;6.834;2024-01-30T12:27:46;10.70;99.90
57026;DHT22;43961;52.940;6.834;2024-01-30T12:30:15;10.80;99.90
57026;DHT22;43961;52.940;6.834;2024-01-30T12:32:43;10.90;99.90
57026;DHT22;43961;52.940;6.834;2024-01-30T12:35:14;10.90;99.90
57026;DHT22;43961;52.940;6.834;2024-01-30T12:37:40;10.90;99.90
57026;DHT22;43961;52.940;6.834;2024-01-30T12:40:16;11.00;99.90
57026;DHT22;43961;52.940;6.834;2024-01-30T12:42:43;11.00;99.90
57026;DHT22;43961;52.940;6.834;2024-01-30T12:45:11;11.00;99.90
57026;DHT22;43961;52.940;6.834;2024-01-30T12:47:37;10.90;99.90
57026;DHT22;43961;52.940;6.834;2024-01-30T12:50:02;10.80;99.90
57026;DHT22;43961;52.940;6.834;2024-01-30T12:52:29;10.80;99.90
57026;DHT22;43961;52.940;6.834;2024-01-30T12:54:54;10.80;99.90
57026;DHT22;43961;52.940;6.834;2024-01-30T12:57:20;10.70;99.90
57026;DHT22;43961;52.940;6.834;2024-01-30T12:59:47;10.70;99.90
57026;DHT22;43961;52.940;6.834;2024-01-30T13:02:13;10.60;99.90
57026;DHT22;43961;52.940;6.834;2024-01-30T13:04:39;10.60;99.90
57026;DHT22;43961;52.940;6.834;2024-01-30T13:07:05;10.50;99.90
57026;DHT22;43961;52.940;6.834;2024-01-30T13:09:31;10.50;99.90
57026;DHT22;43961;52.940;6.834;2024-01-30T13:11:57;10.40;99.90
57026;DHT22;43961;52.940;6.834;2024-01-30T13:14:24;10.40;99.90
57026;DHT22;43961;52.940;6.834;2024-01-30T13:16:50;10.30;99.90
57026;DHT22;43961;52.940;6.834;2024-01-30T13:19:16;10.20;99.90
57026;DHT22;43961;52.940;6.834;2024-01-30T13:21:42;10.20;99.90
57026;DHT22;43961;52.940;6.834;2024-01-30T13:24:08;10.20;99.90
57026;DHT22;43961;52.940;6.834;2024-01-30T13:26:35;10.20;99.90
57026;DHT22;43961;52.940;6.834;2024-01-30T13:29:01;10.20;99.90
57026;DHT22;43961;52.940;6.834;2024-01-30T13:31:26;10.20;99.90
57026;DHT22;43961;52.940;6.834;2024-01-30T13:33:53;10.20;99.90
57026;DHT22;43961;52.940;6.834;2024-01-30T13:36:19;10.20;99.90
57026;DHT22;43961;52.940;6.834;2024-01-30T13:38:45;10.20;99.90
57026;DHT22;43961;52.940;6.834;2024-01-30T13:41:10;10.30;99.90
57026;DHT22;43961;52.940;6.834;2024-01-30T13:43:36;10.30;99.90
57026;DHT22;43961;52.940;6.834;2024-01-30T13:46:02;10.20;99.90
57026;DHT22;43961;52.940;6.834;2024-01-30T13:48:28;10.20;99.90
57026;DHT22;43961;52.940;6.834;2024-01-30T13:50:55;10.10;99.90
57026;DHT22;43961;52.940;6.834;2024-01-30T13:53:21;10.10;99.90
57026;DHT22;43961;52.940;6.834;2024-01-30T13:55:46;10.00;99.90
57026;DHT22;43961;52.940;6.834;2024-01-30T13:58:12;10.00;99.90
57026;DHT22;43961;52.940;6.834;2024-01-30T14:00:38;9.90;99.90
57026;DHT22;43961;52.940;6.834;2024-01-30T14:03:05;9.90;99.90
57026;DHT22;43961;52.940;6.834;2024-01-30T14:05:31;9.90;99.90
57026;DHT22;43961;52.940;6.834;2024-01-30T14:07:57;9.80;99.90
57026;DHT22;43961;52.940;6.834;2024-01-30T14:10:23;9.80;99.90
57026;DHT22;43961;52.940;6.834;2024-01-30T14:12:49;9.80;99.90
57026;DHT22;43961;52.940;6.834;2024-01-30T14:15:15;9.90;99.90
57026;DHT22;43961;52.940;6.834;2024-01-30T14:17:43;9.90;99.90
57026;DHT22;43961;52.940;6.834;2024-01-30T14:20:09;9.80;99.90
57026;DHT22;43961;52.940;6.834;2024-01-30T14:22:36;9.80;99.90
57026;DHT22;43961;52.940;6.834;2024-01-30T14:25:02;9.80;99.90
57026;DHT22;43961;52.940;6.834;2024-01-30T14:27:31;9.80;99.90
57026;DHT22;43961;52.940;6.834;2024-01-30T14:29:57;9.80;99.90
57026;DHT22;43961;52.940;6.834;2024-01-30T14:32:24;9.80;99.90
57026;DHT22;43961;52.940;6.834;2024-01-30T14:34:53;9.80;99.90
57026;DHT22;43961;52.940;6.834;2024-01-30T14:37:20;9.70;99.90
57026;DHT22;43961;52.940;6.834;2024-01-30T14:39:46;9.80;99.90
57026;DHT22;43961;52.940;6.834;2024-01-30T14:42:13;9.70;99.90
57026;DHT22;43961;52.940;6.834;2024-01-30T14:44:38;9.70;99.90
57026;DHT22;43961;52.940;6.834;2024-01-30T14:47:05;9.70;99.90
57026;DHT22;43961;52.940;6.834;2024-01-30T14:49:31;9.70;99.90
57026;DHT22;43961;52.940;6.834;2024-01-30T14:51:56;9.70;99.90
57026;DHT22;43961;52.940;6.834;2024-01-30T14:54:24;9.60;99.90
57026;DHT22;43961;52.940;6.834;2024-01-30T14:56:50;9.60;99.90
57026;DHT22;43961;52.940;6.834;2024-01-30T14:59:15;9.60;99.90
57026;DHT22;43961;52.940;6.834;2024-01-30T15:01:41;9.50;99.90
57026;DHT22;43961;52.940;6.834;2024-01-30T15:04:07;9.50;99.90
57026;DHT22;43961;52.940;6.834;2024-01-30T15:06:33;9.40;99.90
57026;DHT22;43961;52.940;6.834;2024-01-30T15:08:58;9.30;99.90
57026;DHT22;43961;52.940;6.834;2024-01-30T15:11:24;9.30;99.90
57026;DHT22;43961;52.940;6.834;2024-01-30T15:13:50;9.30;99.90
57026;DHT22;43961;52.940;6.834;2024-01-30T15:16:15;9.30;99.90
57026;DHT22;43961;52.940;6.834;2024-01-30T15:18:41;9.20;99.90
57026;DHT22;43961;52.940;6.834;2024-01-30T15:21:07;9.20;99.90
57026;DHT22;43961;52.940;6.834;2024-01-30T15:23:32;9.20;99.90
57026;DHT22;43961;52.940;6.834;2024-01-30T15:25:58;9.20;99.90
57026;DHT22;43961;52.940;6.834;2024-01-30T15:28:34;9.10;99.90
57026;DHT22;43961;52.940;6.834;2024-01-30T15:31:04;9.20;99.90
57026;DHT22;43961;52.940;6.834;2024-01-30T15:33:30;9.10;99.90
57026;DHT22;43961;52.940;6.834;2024-01-30T15:35:58;9.10;99.90
57026;DHT22;43961;52.940;6.834;2024-01-30T15:38:24;9.10;99.90